createdAt,value
2019-02-21T00:01:37.218Z,96007.7
2019-02-21T00:06:34.152Z,96007
2019-02-21T00:11:31.142Z,96076.8
2019-02-21T00:16:27.955Z,95999.4
2019-02-21T00:21:24.957Z,95989.3
2019-02-21T00:26:21.998Z,95993.3
2019-02-21T00:31:19.012Z,95989.3
2019-02-21T00:36:16.121Z,95998.4
2019-02-21T00:41:12.822Z,95988.9
2019-02-21T00:46:09.841Z,95952.9
2019-02-21T00:51:06.486Z,95987.1
2019-02-21T00:56:02.938Z,95991.7
2019-02-21T01:00:59.694Z,95982.6
2019-02-21T01:05:56.661Z,95980.2
2019-02-21T01:10:53.657Z,95984.3
2019-02-21T01:15:50.553Z,95968.8
2019-02-21T01:20:47.111Z,95970.7
2019-02-21T01:25:44.076Z,95972.8
2019-02-21T01:30:40.765Z,95976.4
2019-02-21T01:35:37.932Z,96046.4
2019-02-21T01:40:34.733Z,95970.9
2019-02-21T01:45:31.653Z,95978.7
2019-02-21T01:50:28.652Z,95976.9
2019-02-21T01:55:25.680Z,95970.9
2019-02-21T02:00:22.722Z,96054.8
2019-02-21T02:05:19.875Z,95986.6
2019-02-21T02:10:16.352Z,95983.5
2019-02-21T02:15:13.297Z,95981.3
2019-02-21T02:20:09.868Z,95987.8
2019-02-21T02:25:06.769Z,95986.7
2019-02-21T02:30:03.608Z,95983.4
2019-02-21T02:35:00.485Z,95959.7
2019-02-21T02:39:57.341Z,95996.8
2019-02-21T02:44:54.266Z,95998.1
2019-02-21T02:49:51.175Z,96004
2019-02-21T02:54:47.877Z,95999.7
2019-02-21T02:59:44.815Z,95994
2019-02-21T03:04:41.802Z,96010.7
2019-02-21T03:09:38.639Z,96006.1
2019-02-21T03:14:35.520Z,96012.7
2019-02-21T03:19:32.298Z,96027.8
2019-02-21T03:24:29.166Z,96031.5
2019-02-21T03:29:25.968Z,96042.9
2019-02-21T03:34:22.957Z,96038.1
2019-02-21T03:39:19.574Z,96032.4
2019-02-21T03:44:16.563Z,96057.1
2019-02-21T03:49:13.273Z,96053.1
2019-02-21T03:54:10.224Z,96057.1
2019-02-21T03:59:07.061Z,96055.6
2019-02-21T04:04:03.773Z,96075.4
2019-02-21T04:09:00.351Z,96079.7
2019-02-21T04:13:57.290Z,96090.4
2019-02-21T04:18:53.960Z,96098.3
2019-02-21T04:23:50.823Z,96096
2019-02-21T04:28:47.608Z,96107.9
2019-02-21T04:33:44.565Z,96109
2019-02-21T04:38:41.274Z,96106.5
2019-02-21T04:43:38.175Z,96110.3
2019-02-21T04:48:34.947Z,96120.6
2019-02-21T04:53:31.971Z,96088.7
2019-02-21T04:58:28.771Z,96121.9
2019-02-21T05:03:25.947Z,96121.9
2019-02-21T05:08:22.593Z,96121.8
2019-02-21T05:13:19.509Z,96209.5
2019-02-21T05:18:16.370Z,96140.1
2019-02-21T05:23:13.155Z,96125.7
2019-02-21T05:28:09.508Z,96272.4
2019-02-21T05:33:06.330Z,96283.5
2019-02-21T05:38:02.984Z,96141.7
2019-02-21T05:42:59.691Z,96291.5
2019-02-21T05:47:56.513Z,96300.5
2019-02-21T05:52:53.408Z,96185
2019-02-21T05:57:50.134Z,96276.8
2019-02-21T06:02:53.235Z,95958
2019-02-21T06:07:44.008Z,96301.2
2019-02-21T06:12:40.835Z,96336.8
2019-02-21T06:17:37.588Z,96338.3
2019-02-21T06:22:34.377Z,96340.9
2019-02-21T06:27:31.289Z,96316.3
2019-02-21T06:32:28.140Z,96240
2019-02-21T06:37:24.811Z,96367.5
2019-02-21T06:42:23.209Z,96353.4
2019-02-21T06:47:19.831Z,96365.6
2019-02-21T06:52:16.695Z,96378.8
2019-02-21T06:57:13.331Z,96399.9
2019-02-21T07:02:10.384Z,96397.8
2019-02-21T07:07:07.005Z,96404
2019-02-21T07:12:03.936Z,96388.1
2019-02-21T07:17:00.864Z,96342.2
2019-02-21T07:21:57.837Z,96399.5
2019-02-21T07:26:54.610Z,96267.7
2019-02-21T07:31:51.384Z,96416.3
2019-02-21T07:36:50.063Z,96339.4
2019-02-21T07:41:45.336Z,96415.3
2019-02-21T07:46:42.161Z,96343.1
2019-02-21T07:51:41.356Z,96261.1
2019-02-21T07:56:41.758Z,96359
2019-02-21T08:01:31.922Z,96400.7
2019-02-21T08:06:28.743Z,96425.4
2019-02-21T08:11:25.943Z,96401
2019-02-21T08:16:22.893Z,96411.5
2019-02-21T08:21:19.685Z,96351.4
2019-02-21T08:26:16.564Z,96263.5
2019-02-21T08:31:13.288Z,96297.3
2019-02-21T08:36:10.317Z,96348.4
2019-02-21T08:41:07.265Z,96262.7
2019-02-21T08:46:03.154Z,96266
2019-02-21T08:51:00.638Z,96337.8
2019-02-21T08:55:57.315Z,96273.2
2019-02-21T09:00:54.502Z,96263.6
2019-02-21T09:05:50.754Z,96270.6
2019-02-21T09:10:47.706Z,96265.6
2019-02-21T09:15:46.525Z,96263.1
2019-02-21T09:20:41.472Z,96271.9
2019-02-21T09:25:38.430Z,96269.2
2019-02-21T09:30:35.361Z,96268.9
2019-02-21T09:35:32.280Z,96257.7
2019-02-21T09:40:29.874Z,96343.7
2019-02-21T09:45:26.524Z,96257.4
2019-02-21T09:50:23.472Z,96263.6
2019-02-21T09:55:20.475Z,96256.7
2019-02-21T10:00:17.146Z,96247.6
2019-02-21T10:05:13.788Z,96251.1
2019-02-21T10:10:10.697Z,96252.3
2019-02-21T10:15:07.611Z,96242.6
2019-02-21T10:20:04.080Z,96242.8
2019-02-21T10:24:59.158Z,96228.1
2019-02-21T10:29:55.921Z,96225
2019-02-21T10:34:53.137Z,96202
2019-02-21T10:39:50.117Z,96217.1
2019-02-21T10:44:47.318Z,96202.9
2019-02-21T10:49:44.371Z,96198.8
2019-02-21T10:54:41.188Z,96187.9
2019-02-21T10:59:46.113Z,96170.9
2019-02-21T11:04:35.025Z,96175
2019-02-21T11:09:31.897Z,96175.8
2019-02-21T11:14:29.135Z,96154.8
2019-02-21T11:19:26.135Z,96153.1
2019-02-21T11:24:23.114Z,96151.2
2019-02-21T11:29:20.322Z,96148.1
2019-02-21T11:34:17.364Z,96208.8
2019-02-21T11:39:14.179Z,96140
2019-02-21T11:44:11.264Z,96206.7
2019-02-21T11:49:08.309Z,96126.5
2019-02-21T11:54:05.349Z,96119.9
2019-02-21T11:59:02.202Z,96109.8
2019-02-21T12:03:59.279Z,96117.9
2019-02-21T12:08:56.669Z,96178.3
2019-02-21T12:13:53.786Z,96100.7
2019-02-21T12:18:51.014Z,96096.6
2019-02-21T12:23:47.924Z,96094.1
2019-02-21T12:28:45.257Z,96154.8
2019-02-21T12:33:42.428Z,96152.7
2019-02-21T12:38:39.846Z,96157.4
2019-02-21T12:43:36.732Z,96167.9
2019-02-21T12:48:34.050Z,96164.2
2019-02-21T12:53:31.259Z,96163.6
2019-02-21T12:58:28.179Z,96162.8
2019-02-21T13:03:25.053Z,96147.9
2019-02-21T13:08:22.234Z,96149.1
2019-02-21T13:13:19.041Z,96149.3
2019-02-21T13:18:16.352Z,96145.2
2019-02-21T13:23:13.248Z,96140.9
2019-02-21T13:28:10.205Z,96130.5
2019-02-21T13:33:07.087Z,96129.9
2019-02-21T13:38:04.529Z,96050.1
2019-02-21T13:43:01.514Z,96124.8
2019-02-21T13:47:58.414Z,96126.3
2019-02-21T13:52:55.364Z,96130.7
2019-02-21T13:57:52.247Z,96127.9
2019-02-21T14:02:49.221Z,96126.5
2019-02-21T14:07:46.014Z,96072.8
2019-02-21T14:12:42.869Z,96116.9
2019-02-21T14:17:39.524Z,96124.8
2019-02-21T14:22:36.232Z,96117.4
2019-02-21T14:27:33.029Z,96045.8
2019-02-21T14:32:29.824Z,96043.9
2019-02-21T14:37:26.886Z,96037.3
2019-02-21T14:42:23.699Z,96159.3
2019-02-21T14:47:19.978Z,96028.9
2019-02-21T14:52:16.524Z,96029.1
2019-02-21T14:57:15.264Z,96033.9
2019-02-21T15:02:10.115Z,96025
2019-02-21T15:07:07.214Z,96027.9
2019-02-21T15:12:04.068Z,96032
2019-02-21T15:17:03.534Z,96026.3
2019-02-21T15:21:57.767Z,96028.1
2019-02-21T15:26:54.727Z,96035.1
2019-02-21T15:31:50.622Z,96018.5
2019-02-21T15:36:47.711Z,96027.2
2019-02-21T15:41:44.610Z,96030.7
2019-02-21T15:46:41.773Z,96034.9
2019-02-21T15:51:38.499Z,96033.4
2019-02-21T15:56:35.619Z,96029.9
2019-02-21T16:01:32.489Z,96029.9
2019-02-21T16:06:29.500Z,96027.6
2019-02-21T16:11:26.854Z,96113.4
2019-02-21T16:16:24.902Z,96114.8
2019-02-21T16:21:21.157Z,96049.5
2019-02-21T16:26:18.540Z,96046.7
2019-02-21T16:31:14.800Z,96058
2019-02-21T16:36:11.688Z,96063.5
2019-02-21T16:41:08.726Z,96068.9
2019-02-21T16:46:07.987Z,96079.4
2019-02-21T16:51:03.472Z,96144.9
2019-02-21T16:56:01.091Z,96048.9
2019-02-21T17:00:57.485Z,96085.9
2019-02-21T17:05:54.735Z,96018.5
2019-02-21T17:10:51.530Z,96081.5
2019-02-21T17:15:49.003Z,96156
2019-02-21T17:20:45.396Z,96081.3
2019-02-21T17:25:42.229Z,95894.6
2019-02-21T17:30:39.093Z,96084.4
2019-02-21T17:35:35.724Z,96079.2
2019-02-21T17:40:32.267Z,96126.1
2019-02-21T17:45:29.055Z,96079.7
2019-02-21T17:50:26.182Z,96078.9
2019-02-21T17:55:23.178Z,96080.7
2019-02-21T18:00:20.008Z,96072.8
2019-02-21T18:05:17.296Z,96070.9
2019-02-21T18:10:14.152Z,96043.1
2019-02-21T18:15:11.032Z,96065.8
2019-02-21T18:20:07.740Z,96067.7
2019-02-21T18:25:04.858Z,96068.7
2019-02-21T18:30:01.802Z,95944.5
2019-02-21T18:34:58.854Z,96074.2
2019-02-21T18:39:55.592Z,96072
2019-02-21T18:44:52.436Z,96046.8
2019-02-21T18:49:51.691Z,96072.1
2019-02-21T18:54:48.313Z,96080
2019-02-21T18:59:45.144Z,96081.9
2019-02-21T19:04:44.140Z,96074.3
2019-02-21T19:09:40.398Z,96075.6
2019-02-21T19:14:37.239Z,96075.2
2019-02-21T19:19:34.021Z,96068.9
2019-02-21T19:24:30.566Z,96074
2019-02-21T19:29:27.381Z,96075.3
2019-02-21T19:34:24.526Z,96075
2019-02-21T19:39:22.346Z,96087.1
2019-02-21T19:44:19.154Z,96086.4
2019-02-21T19:49:15.979Z,96088.1
2019-02-21T19:54:13.001Z,96086.7
2019-02-21T19:59:09.894Z,96081.7
2019-02-21T20:04:06.731Z,96071.6
2019-02-21T20:09:03.432Z,96075.8
2019-02-21T20:14:00.290Z,96146.5
2019-02-21T20:18:56.824Z,96066.8
2019-02-21T20:28:50.722Z,96061.8
2019-02-21T20:33:47.820Z,96052.2
2019-02-21T20:38:44.542Z,96059.8
2019-02-21T20:43:41.433Z,96055.8
2019-02-21T20:48:37.785Z,96048.5
2019-02-21T20:53:34.317Z,96048
2019-02-21T20:58:31.440Z,96031.1
2019-02-21T21:03:28.499Z,96008.9
2019-02-21T21:08:25.705Z,95993.6
2019-02-21T21:13:22.422Z,96016.6
2019-02-21T21:18:19.292Z,96018.4
2019-02-21T21:23:15.951Z,96017.2
2019-02-21T21:28:12.757Z,96017.7
2019-02-21T21:33:09.778Z,96012.4
2019-02-21T21:38:06.623Z,96005.8
2019-02-21T21:43:03.637Z,96010.9
2019-02-21T21:48:00.346Z,96008.7
2019-02-21T21:52:57.323Z,96007.3
2019-02-21T21:57:54.055Z,96010.5
2019-02-21T22:02:51.025Z,96010.9
2019-02-21T22:07:49.278Z,96015.1
2019-02-21T22:12:44.730Z,96008.9
2019-02-21T22:17:42.238Z,96006.2
2019-02-21T22:22:38.669Z,96007.4
2019-02-21T22:27:35.720Z,96004.7
2019-02-21T22:32:32.751Z,96013.5
2019-02-21T22:37:29.581Z,95985.4
2019-02-21T22:42:26.373Z,96011.2
2019-02-21T22:47:23.006Z,96006.6
2019-02-21T22:52:19.961Z,96004
2019-02-21T22:57:16.788Z,96005.9
2019-02-21T23:02:13.692Z,96008.2
2019-02-21T23:07:10.712Z,95963
2019-02-21T23:12:07.812Z,95994.4
2019-02-21T23:17:04.724Z,95990.1
2019-02-21T23:22:01.682Z,95971.9
2019-02-21T23:26:58.575Z,95979.7
2019-02-21T23:31:55.554Z,95973.3
2019-02-21T23:36:52.358Z,95980.9
2019-02-21T23:41:49.352Z,95968.1
2019-02-21T23:46:46.308Z,95944.1
2019-02-21T23:51:43.441Z,95971.3
2019-02-21T23:56:40.223Z,95926
